SSR90AR LEMG-LEMI
Flight info
| Callsign | SSR90AR |
|---|---|
| Flight time | 0h 42m |
| Altitude | 23000 |
| Route | NESDA L112 AMR/N0393F240 L112 DINCO |
| Aircraft | C525/L-SDFGRYW/SB1 |
Departure
| Time | 2026-05-07 17:17 |
|---|---|
| Airport | Málaga-Costa del Sol Airport (LEMG) |
Arrival
| Time | 2026-05-07 17:59 |
|---|---|
| Airport | Region of Murcia International Airport (LEMI) |
| Time | Latitude | Longitude | Altitude | Speed | Heading |
|---|---|---|---|---|---|
| 2026-05-07 16:57 | 36.66771 | -4.48321 | 55 ft | 0 kts | 42° |
| 2026-05-07 17:09 | 36.66785 | -4.48307 | 55 ft | 4 kts | 26° |
| 2026-05-07 17:09 | 36.66811 | -4.48332 | 55 ft | 6 kts | 312° |
| 2026-05-07 17:09 | 36.66844 | -4.48377 | 55 ft | 7 kts | 311° |
| 2026-05-07 17:10 | 36.66867 | -4.48426 | 55 ft | 7 kts | 269° |
| 2026-05-07 17:10 | 36.66862 | -4.48497 | 55 ft | 5 kts | 269° |
| 2026-05-07 17:10 | 36.66845 | -4.48552 | 55 ft | 8 kts | 225° |
| 2026-05-07 17:10 | 36.66787 | -4.48605 | 55 ft | 10 kts | 235° |
| 2026-05-07 17:11 | 36.66826 | -4.48683 | 55 ft | 12 kts | 312° |
| 2026-05-07 17:11 | 36.66893 | -4.48777 | 55 ft | 16 kts | 311° |
| 2026-05-07 17:11 | 36.66976 | -4.48894 | 55 ft | 17 kts | 311° |
| 2026-05-07 17:11 | 36.67059 | -4.49011 | 55 ft | 18 kts | 311° |
| 2026-05-07 17:12 | 36.67133 | -4.49116 | 55 ft | 14 kts | 312° |
| 2026-05-07 17:12 | 36.67207 | -4.49220 | 55 ft | 17 kts | 312° |
| 2026-05-07 17:12 | 36.67296 | -4.49345 | 55 ft | 21 kts | 312° |
| 2026-05-07 17:12 | 36.67402 | -4.49494 | 55 ft | 24 kts | 311° |
| 2026-05-07 17:13 | 36.67516 | -4.49654 | 55 ft | 26 kts | 312° |
| 2026-05-07 17:13 | 36.67643 | -4.49834 | 55 ft | 23 kts | 311° |
| 2026-05-07 17:13 | 36.67742 | -4.49974 | 55 ft | 16 kts | 312° |
| 2026-05-07 17:13 | 36.67828 | -4.50095 | 55 ft | 20 kts | 311° |
| 2026-05-07 17:14 | 36.67928 | -4.50235 | 55 ft | 23 kts | 313° |
| 2026-05-07 17:14 | 36.68043 | -4.50398 | 55 ft | 26 kts | 312° |
| 2026-05-07 17:14 | 36.68169 | -4.50576 | 56 ft | 28 kts | 312° |
| 2026-05-07 17:14 | 36.68281 | -4.50731 | 55 ft | 23 kts | 312° |
| 2026-05-07 17:15 | 36.68394 | -4.50891 | 56 ft | 25 kts | 311° |
| 2026-05-07 17:15 | 36.68488 | -4.51023 | 56 ft | 15 kts | 312° |
| 2026-05-07 17:15 | 36.68478 | -4.51119 | 56 ft | 10 kts | 213° |
| 2026-05-07 17:15 | 36.68396 | -4.51150 | 56 ft | 14 kts | 194° |
| 2026-05-07 17:16 | 36.68341 | -4.51102 | 56 ft | 17 kts | 131° |
| 2026-05-07 17:16 | 36.68096 | -4.50759 | 56 ft | 89 kts | 132° |
| 2026-05-07 17:16 | 36.67586 | -4.50060 | 258 ft | 122 kts | 131° |
| 2026-05-07 17:16 | 36.66940 | -4.49160 | 627 ft | 153 kts | 132° |
| 2026-05-07 17:17 | 36.66210 | -4.48149 | 1295 ft | 164 kts | 133° |
| 2026-05-07 17:17 | 36.65435 | -4.47081 | 2016 ft | 170 kts | 134° |
| 2026-05-07 17:17 | 36.64645 | -4.45986 | 2801 ft | 171 kts | 133° |
| 2026-05-07 17:17 | 36.63855 | -4.44884 | 3554 ft | 173 kts | 134° |
| 2026-05-07 17:18 | 36.63079 | -4.43794 | 4334 ft | 172 kts | 133° |
| 2026-05-07 17:18 | 36.62292 | -4.42682 | 5117 ft | 171 kts | 132° |
| 2026-05-07 17:18 | 36.61520 | -4.41590 | 5872 ft | 170 kts | 131° |
| 2026-05-07 17:18 | 36.60757 | -4.40509 | 6625 ft | 168 kts | 133° |
| 2026-05-07 17:19 | 36.60059 | -4.39322 | 7210 ft | 177 kts | 116° |
| 2026-05-07 17:19 | 36.59687 | -4.37871 | 7852 ft | 181 kts | 107° |
| 2026-05-07 17:19 | 36.59413 | -4.36330 | 8495 ft | 184 kts | 103° |
| 2026-05-07 17:19 | 36.59161 | -4.34780 | 9122 ft | 186 kts | 103° |
| 2026-05-07 17:20 | 36.58945 | -4.33197 | 9733 ft | 190 kts | 94° |
| 2026-05-07 17:20 | 36.59024 | -4.31546 | 10357 ft | 191 kts | 84° |
| 2026-05-07 17:20 | 36.59212 | -4.29900 | 10944 ft | 194 kts | 82° |
| 2026-05-07 17:20 | 36.59425 | -4.28235 | 11530 ft | 197 kts | 81° |
| 2026-05-07 17:21 | 36.59645 | -4.26546 | 12084 ft | 200 kts | 81° |
| 2026-05-07 17:21 | 36.59866 | -4.24844 | 12593 ft | 204 kts | 80° |
| 2026-05-07 17:21 | 36.60095 | -4.23071 | 13148 ft | 205 kts | 80° |
| 2026-05-07 17:21 | 36.60318 | -4.21322 | 13662 ft | 209 kts | 80° |
| 2026-05-07 17:22 | 36.60550 | -4.19510 | 14117 ft | 215 kts | 80° |
| 2026-05-07 17:22 | 36.60784 | -4.17670 | 14587 ft | 219 kts | 79° |
| 2026-05-07 17:22 | 36.61020 | -4.15799 | 15084 ft | 221 kts | 79° |
| 2026-05-07 17:22 | 36.61264 | -4.13871 | 15503 ft | 226 kts | 79° |
| 2026-05-07 17:23 | 36.61510 | -4.11920 | 15918 ft | 232 kts | 79° |
| 2026-05-07 17:23 | 36.61758 | -4.09941 | 16371 ft | 234 kts | 79° |
| 2026-05-07 17:23 | 36.62014 | -4.07899 | 16796 ft | 238 kts | 79° |
| 2026-05-07 17:23 | 36.62269 | -4.05866 | 17161 ft | 244 kts | 78° |
| 2026-05-07 17:24 | 36.62531 | -4.03768 | 17566 ft | 248 kts | 78° |
| 2026-05-07 17:24 | 36.62797 | -4.01631 | 17960 ft | 251 kts | 78° |
| 2026-05-07 17:24 | 36.63061 | -3.99507 | 18432 ft | 252 kts | 79° |
| 2026-05-07 17:24 | 36.63333 | -3.97320 | 18837 ft | 255 kts | 79° |
| 2026-05-07 17:25 | 36.63603 | -3.95136 | 19306 ft | 254 kts | 79° |
| 2026-05-07 17:25 | 36.63873 | -3.92960 | 19686 ft | 257 kts | 78° |
| 2026-05-07 17:25 | 36.64150 | -3.90719 | 20058 ft | 261 kts | 78° |
| 2026-05-07 17:25 | 36.64426 | -3.88485 | 20496 ft | 261 kts | 78° |
| 2026-05-07 17:26 | 36.64701 | -3.86254 | 20860 ft | 265 kts | 79° |
| 2026-05-07 17:26 | 36.64980 | -3.83981 | 21304 ft | 265 kts | 78° |
| 2026-05-07 17:26 | 36.65257 | -3.81730 | 21653 ft | 267 kts | 78° |
| 2026-05-07 17:26 | 36.65540 | -3.79416 | 22030 ft | 269 kts | 78° |
| 2026-05-07 17:27 | 36.65824 | -3.77099 | 22354 ft | 274 kts | 78° |
| 2026-05-07 17:27 | 36.66109 | -3.74767 | 22765 ft | 273 kts | 78° |
| 2026-05-07 17:27 | 36.66393 | -3.72440 | 23102 ft | 276 kts | 78° |
| 2026-05-07 17:27 | 36.66680 | -3.70082 | 23466 ft | 277 kts | 78° |
| 2026-05-07 17:28 | 36.66971 | -3.67694 | 23785 ft | 281 kts | 78° |
| 2026-05-07 17:28 | 36.67273 | -3.65214 | 23897 ft | 294 kts | 78° |
| 2026-05-07 17:28 | 36.67585 | -3.62659 | 23911 ft | 310 kts | 79° |
| 2026-05-07 17:28 | 36.67917 | -3.59924 | 23917 ft | 325 kts | 79° |
| 2026-05-07 17:29 | 36.68261 | -3.57087 | 23915 ft | 338 kts | 79° |
| 2026-05-07 17:29 | 36.68616 | -3.54140 | 23914 ft | 350 kts | 79° |
| 2026-05-07 17:29 | 36.68986 | -3.51061 | 23913 ft | 361 kts | 79° |
| 2026-05-07 17:29 | 36.69359 | -3.47950 | 23914 ft | 370 kts | 79° |
| 2026-05-07 17:30 | 36.69742 | -3.44742 | 23915 ft | 378 kts | 79° |
| 2026-05-07 17:30 | 36.70132 | -3.41476 | 23907 ft | 385 kts | 78° |
| 2026-05-07 17:30 | 36.70531 | -3.38120 | 23901 ft | 391 kts | 79° |
| 2026-05-07 17:30 | 36.70929 | -3.34763 | 23899 ft | 396 kts | 79° |
| 2026-05-07 17:31 | 36.71334 | -3.31334 | 23895 ft | 400 kts | 80° |
| 2026-05-07 17:31 | 36.71741 | -3.27886 | 23897 ft | 403 kts | 79° |
| 2026-05-07 17:31 | 36.72155 | -3.24373 | 23893 ft | 406 kts | 79° |
| 2026-05-07 17:31 | 36.72559 | -3.20924 | 23894 ft | 408 kts | 80° |
| 2026-05-07 17:32 | 36.72971 | -3.17409 | 23892 ft | 410 kts | 80° |
| 2026-05-07 17:32 | 36.73386 | -3.13858 | 23891 ft | 411 kts | 80° |
| 2026-05-07 17:32 | 36.73800 | -3.10305 | 23889 ft | 412 kts | 79° |
| 2026-05-07 17:32 | 36.74077 | -3.07925 | 23891 ft | 413 kts | 79° |
| 2026-05-07 17:33 | 36.74625 | -3.03207 | 23891 ft | 414 kts | 79° |
| 2026-05-07 17:33 | 36.75042 | -2.99601 | 23887 ft | 415 kts | 79° |
| 2026-05-07 17:33 | 36.75450 | -2.96060 | 23888 ft | 416 kts | 79° |
| 2026-05-07 17:33 | 36.75864 | -2.92462 | 23890 ft | 416 kts | 79° |
| 2026-05-07 17:34 | 36.76276 | -2.88875 | 23889 ft | 417 kts | 79° |
| 2026-05-07 17:34 | 36.76683 | -2.85321 | 23889 ft | 417 kts | 79° |
| 2026-05-07 17:34 | 36.77094 | -2.81718 | 23890 ft | 418 kts | 79° |
| 2026-05-07 17:34 | 36.77504 | -2.78115 | 23894 ft | 419 kts | 79° |
| 2026-05-07 17:35 | 36.77908 | -2.74553 | 23894 ft | 419 kts | 79° |
| 2026-05-07 17:35 | 36.78319 | -2.70923 | 23896 ft | 419 kts | 80° |
| 2026-05-07 17:35 | 36.78725 | -2.67327 | 23899 ft | 420 kts | 79° |
| 2026-05-07 17:35 | 36.79128 | -2.63748 | 23896 ft | 420 kts | 79° |
| 2026-05-07 17:36 | 36.79539 | -2.60095 | 23896 ft | 420 kts | 79° |
| 2026-05-07 17:36 | 36.79945 | -2.56461 | 23899 ft | 421 kts | 79° |
| 2026-05-07 17:36 | 36.80346 | -2.52872 | 23896 ft | 421 kts | 79° |
| 2026-05-07 17:36 | 36.80746 | -2.49281 | 23900 ft | 421 kts | 79° |
| 2026-05-07 17:37 | 36.81147 | -2.45673 | 23901 ft | 422 kts | 79° |
| 2026-05-07 17:37 | 36.81552 | -2.42016 | 23898 ft | 422 kts | 79° |
| 2026-05-07 17:37 | 36.81950 | -2.38407 | 23897 ft | 422 kts | 79° |
| 2026-05-07 17:37 | 36.82352 | -2.34758 | 23901 ft | 423 kts | 80° |
| 2026-05-07 17:38 | 36.82751 | -2.31116 | 23908 ft | 422 kts | 80° |
| 2026-05-07 17:38 | 36.83184 | -2.27485 | 23891 ft | 421 kts | 76° |
| 2026-05-07 17:38 | 36.84263 | -2.24153 | 23940 ft | 411 kts | 57° |
| 2026-05-07 17:38 | 36.85611 | -2.20954 | 23922 ft | 412 kts | 57° |
| 2026-05-07 17:39 | 36.86958 | -2.17829 | 23914 ft | 412 kts | 56° |
| 2026-05-07 17:39 | 36.88340 | -2.14651 | 23909 ft | 412 kts | 56° |
| 2026-05-07 17:39 | 36.89704 | -2.11524 | 23907 ft | 412 kts | 56° |
| 2026-05-07 17:39 | 36.91086 | -2.08363 | 23906 ft | 412 kts | 56° |
| 2026-05-07 17:40 | 36.92473 | -2.05191 | 23906 ft | 412 kts | 56° |
| 2026-05-07 17:40 | 36.93861 | -2.02019 | 23898 ft | 412 kts | 56° |
| 2026-05-07 17:40 | 36.95227 | -1.98898 | 23898 ft | 412 kts | 56° |
| 2026-05-07 17:40 | 36.96608 | -1.95738 | 23895 ft | 413 kts | 55° |
| 2026-05-07 17:41 | 36.97983 | -1.92593 | 23891 ft | 413 kts | 56° |
| 2026-05-07 17:41 | 36.99368 | -1.89422 | 23891 ft | 413 kts | 56° |
| 2026-05-07 17:41 | 37.00738 | -1.86284 | 23893 ft | 413 kts | 56° |
| 2026-05-07 17:41 | 37.02122 | -1.83110 | 23894 ft | 413 kts | 56° |
| 2026-05-07 17:42 | 37.03504 | -1.79938 | 23896 ft | 413 kts | 55° |
| 2026-05-07 17:42 | 37.04906 | -1.76718 | 23906 ft | 413 kts | 56° |
| 2026-05-07 17:42 | 37.06277 | -1.73566 | 23906 ft | 411 kts | 56° |
| 2026-05-07 17:42 | 37.07647 | -1.70410 | 23910 ft | 407 kts | 55° |
| 2026-05-07 17:43 | 37.09002 | -1.67288 | 23901 ft | 404 kts | 55° |
| 2026-05-07 17:43 | 37.10297 | -1.64300 | 23908 ft | 402 kts | 55° |
| 2026-05-07 17:43 | 37.11642 | -1.61198 | 23902 ft | 400 kts | 55° |
| 2026-05-07 17:43 | 37.12964 | -1.58147 | 23756 ft | 402 kts | 55° |
| 2026-05-07 17:44 | 37.14313 | -1.55037 | 23455 ft | 408 kts | 56° |
| 2026-05-07 17:44 | 37.15664 | -1.51916 | 23207 ft | 410 kts | 56° |
| 2026-05-07 17:44 | 37.17038 | -1.48738 | 22978 ft | 412 kts | 56° |
| 2026-05-07 17:44 | 37.18353 | -1.45691 | 22800 ft | 412 kts | 56° |
| 2026-05-07 17:45 | 37.19700 | -1.42560 | 22682 ft | 410 kts | 56° |
| 2026-05-07 17:45 | 37.21086 | -1.39343 | 22428 ft | 411 kts | 56° |
| 2026-05-07 17:45 | 37.22431 | -1.36212 | 22188 ft | 403 kts | 56° |
| 2026-05-07 17:45 | 37.23732 | -1.33178 | 21923 ft | 393 kts | 57° |
| 2026-05-07 17:46 | 37.25049 | -1.30229 | 21653 ft | 382 kts | 51° |
| 2026-05-07 17:46 | 37.26839 | -1.27894 | 21156 ft | 371 kts | 33° |
| 2026-05-07 17:46 | 37.28884 | -1.25883 | 20553 ft | 372 kts | 31° |
| 2026-05-07 17:46 | 37.30971 | -1.23964 | 19946 ft | 373 kts | 30° |
| 2026-05-07 17:47 | 37.33087 | -1.22049 | 19321 ft | 374 kts | 30° |
| 2026-05-07 17:47 | 37.35209 | -1.20135 | 18708 ft | 373 kts | 31° |
| 2026-05-07 17:47 | 37.37348 | -1.18208 | 18095 ft | 373 kts | 31° |
| 2026-05-07 17:47 | 37.39434 | -1.16323 | 17487 ft | 368 kts | 32° |
| 2026-05-07 17:48 | 37.41546 | -1.14416 | 16870 ft | 364 kts | 32° |
| 2026-05-07 17:48 | 37.43590 | -1.12564 | 16260 ft | 354 kts | 32° |
| 2026-05-07 17:48 | 37.45565 | -1.10776 | 15639 ft | 346 kts | 33° |
| 2026-05-07 17:48 | 37.47523 | -1.09002 | 15008 ft | 339 kts | 33° |
| 2026-05-07 17:49 | 37.49401 | -1.07301 | 14387 ft | 333 kts | 33° |
| 2026-05-07 17:49 | 37.51329 | -1.05688 | 13744 ft | 326 kts | 25° |
| 2026-05-07 17:49 | 37.53530 | -1.05119 | 13119 ft | 314 kts | 357° |
| 2026-05-07 17:49 | 37.55547 | -1.05823 | 12681 ft | 293 kts | 329° |
| 2026-05-07 17:50 | 37.56976 | -1.07538 | 12275 ft | 276 kts | 301° |
| 2026-05-07 17:50 | 37.57500 | -1.09772 | 11898 ft | 266 kts | 272° |
| 2026-05-07 17:50 | 37.57051 | -1.11953 | 11546 ft | 261 kts | 242° |
| 2026-05-07 17:50 | 37.56030 | -1.13790 | 11412 ft | 245 kts | 238° |
| 2026-05-07 17:51 | 37.55186 | -1.15627 | 11288 ft | 232 kts | 246° |
| 2026-05-07 17:51 | 37.54613 | -1.17482 | 11145 ft | 225 kts | 255° |
| 2026-05-07 17:51 | 37.54284 | -1.19403 | 11018 ft | 220 kts | 263° |
| 2026-05-07 17:51 | 37.54184 | -1.21326 | 10875 ft | 215 kts | 270° |
| 2026-05-07 17:52 | 37.54276 | -1.23182 | 10741 ft | 212 kts | 277° |
| 2026-05-07 17:52 | 37.54537 | -1.25044 | 10509 ft | 215 kts | 283° |
| 2026-05-07 17:52 | 37.54948 | -1.26864 | 10257 ft | 219 kts | 288° |
| 2026-05-07 17:52 | 37.55502 | -1.28669 | 10031 ft | 225 kts | 293° |
| 2026-05-07 17:53 | 37.56194 | -1.30470 | 9779 ft | 231 kts | 297° |
| 2026-05-07 17:53 | 37.57010 | -1.32234 | 9534 ft | 235 kts | 301° |
| 2026-05-07 17:53 | 37.57936 | -1.33940 | 9292 ft | 238 kts | 305° |
| 2026-05-07 17:53 | 37.58959 | -1.35575 | 9044 ft | 235 kts | 309° |
| 2026-05-07 17:54 | 37.60101 | -1.37055 | 8771 ft | 233 kts | 323° |
| 2026-05-07 17:54 | 37.61633 | -1.37601 | 8528 ft | 234 kts | 359° |
| 2026-05-07 17:54 | 37.63147 | -1.36933 | 8282 ft | 236 kts | 33° |
| 2026-05-07 17:54 | 37.64376 | -1.35541 | 8044 ft | 235 kts | 44° |
| 2026-05-07 17:55 | 37.65426 | -1.34094 | 7803 ft | 234 kts | 47° |
| 2026-05-07 17:55 | 37.66491 | -1.32545 | 7542 ft | 232 kts | 48° |
| 2026-05-07 17:55 | 37.67560 | -1.30967 | 6965 ft | 245 kts | 48° |
| 2026-05-07 17:55 | 37.68679 | -1.29306 | 6263 ft | 254 kts | 49° |
| 2026-05-07 17:56 | 37.69826 | -1.27594 | 5558 ft | 259 kts | 49° |
| 2026-05-07 17:56 | 37.70991 | -1.25855 | 4846 ft | 259 kts | 50° |
| 2026-05-07 17:56 | 37.72145 | -1.24133 | 4076 ft | 259 kts | 49° |
| 2026-05-07 17:56 | 37.73329 | -1.22421 | 3307 ft | 258 kts | 49° |
| 2026-05-07 17:57 | 37.74482 | -1.20760 | 2657 ft | 241 kts | 48° |
| 2026-05-07 17:57 | 37.75180 | -1.19716 | 2219 ft | 225 kts | 51° |
| 2026-05-07 17:57 | 37.76261 | -1.17661 | 1541 ft | 201 kts | 50° |
| 2026-05-07 17:57 | 37.77118 | -1.16558 | 1388 ft | 158 kts | 44° |
| 2026-05-07 17:58 | 37.77834 | -1.15651 | 1177 ft | 126 kts | 43° |
| 2026-05-07 17:58 | 37.78399 | -1.14906 | 973 ft | 109 kts | 43° |
| 2026-05-07 17:58 | 37.78919 | -1.14266 | 829 ft | 102 kts | 43° |
| 2026-05-07 17:58 | 37.79412 | -1.13633 | 679 ft | 100 kts | 43° |
| 2026-05-07 17:59 | 37.79865 | -1.13050 | 633 ft | 82 kts | 45° |
| 2026-05-07 17:59 | 37.80209 | -1.12602 | 630 ft | 61 kts | 46° |
| 2026-05-07 17:59 | 37.80472 | -1.12264 | 628 ft | 47 kts | 46° |
| 2026-05-07 17:59 | 37.80691 | -1.11987 | 624 ft | 41 kts | 48° |
| 2026-05-07 18:00 | 37.80882 | -1.11741 | 626 ft | 37 kts | 45° |
| 2026-05-07 18:00 | 37.81054 | -1.11519 | 628 ft | 34 kts | 45° |
| 2026-05-07 18:00 | 37.81212 | -1.11313 | 628 ft | 22 kts | 38° |
| 2026-05-07 18:00 | 37.81291 | -1.11338 | 631 ft | 11 kts | 316° |
| 2026-05-07 18:01 | 37.81349 | -1.11417 | 633 ft | 13 kts | 286° |
| 2026-05-07 18:01 | 37.81290 | -1.11525 | 632 ft | 17 kts | 226° |
| 2026-05-07 18:01 | 37.81190 | -1.11654 | 633 ft | 23 kts | 225° |
| 2026-05-07 18:01 | 37.81063 | -1.11818 | 631 ft | 28 kts | 227° |
| 2026-05-07 18:02 | 37.80738 | -1.12235 | 632 ft | 37 kts | 226° |
| 2026-05-07 18:02 | 37.80548 | -1.12479 | 634 ft | 40 kts | 225° |
| 2026-05-07 18:02 | 37.80344 | -1.12742 | 636 ft | 43 kts | 227° |
| 2026-05-07 18:03 | 37.80144 | -1.12999 | 639 ft | 31 kts | 225° |
| 2026-05-07 18:03 | 37.80150 | -1.13124 | 644 ft | 13 kts | 319° |
| 2026-05-07 18:03 | 37.80225 | -1.13188 | 648 ft | 12 kts | 317° |
| 2026-05-07 18:03 | 37.80267 | -1.13239 | 651 ft | 2 kts | 315° |
| 2026-05-07 18:04 | 37.80267 | -1.13240 | 651 ft | 0 kts | 315° |
| 2026-05-07 18:32 | 37.80267 | -1.13239 | 651 ft | 0 kts | 315° |